sensor_id;sensor_type;location;lat;lon;timestamp;P1;durP1;ratioP1;P2;durP2;ratioP2
18172;SDS011;9211;48.818;9.312;2023-02-24T00:01:59;27.48;;;14.80;;
18172;SDS011;9211;48.818;9.312;2023-02-24T00:04:30;27.38;;;14.75;;
18172;SDS011;9211;48.818;9.312;2023-02-24T00:06:58;27.10;;;14.48;;
18172;SDS011;9211;48.818;9.312;2023-02-24T00:09:27;23.45;;;14.60;;
18172;SDS011;9211;48.818;9.312;2023-02-24T00:11:55;26.15;;;15.15;;
18172;SDS011;9211;48.818;9.312;2023-02-24T00:14:25;28.05;;;14.80;;
18172;SDS011;9211;48.818;9.312;2023-02-24T00:16:54;28.77;;;16.00;;
18172;SDS011;9211;48.818;9.312;2023-02-24T00:19:23;28.20;;;15.70;;
18172;SDS011;9211;48.818;9.312;2023-02-24T00:21:52;26.40;;;15.27;;
18172;SDS011;9211;48.818;9.312;2023-02-24T00:24:20;27.58;;;15.10;;
18172;SDS011;9211;48.818;9.312;2023-02-24T00:26:50;26.55;;;15.68;;
18172;SDS011;9211;48.818;9.312;2023-02-24T00:29:21;25.75;;;14.80;;
18172;SDS011;9211;48.818;9.312;2023-02-24T00:31:51;23.97;;;14.13;;
18172;SDS011;9211;48.818;9.312;2023-02-24T00:34:23;26.52;;;14.60;;
18172;SDS011;9211;48.818;9.312;2023-02-24T00:36:50;28.48;;;15.10;;
18172;SDS011;9211;48.818;9.312;2023-02-24T00:39:19;29.52;;;16.23;;
18172;SDS011;9211;48.818;9.312;2023-02-24T00:41:53;26.95;;;15.00;;
18172;SDS011;9211;48.818;9.312;2023-02-24T00:44:28;30.03;;;16.33;;
18172;SDS011;9211;48.818;9.312;2023-02-24T00:46:58;28.35;;;15.10;;
18172;SDS011;9211;48.818;9.312;2023-02-24T00:49:25;25.58;;;14.45;;
18172;SDS011;9211;48.818;9.312;2023-02-24T00:51:53;25.95;;;14.90;;
18172;SDS011;9211;48.818;9.312;2023-02-24T00:54:22;29.27;;;16.23;;
18172;SDS011;9211;48.818;9.312;2023-02-24T00:56:52;31.35;;;17.27;;
18172;SDS011;9211;48.818;9.312;2023-02-24T00:59:20;28.45;;;16.67;;
18172;SDS011;9211;48.818;9.312;2023-02-24T01:01:48;32.50;;;17.27;;
18172;SDS011;9211;48.818;9.312;2023-02-24T01:04:16;31.65;;;18.40;;
18172;SDS011;9211;48.818;9.312;2023-02-24T01:06:45;33.17;;;18.37;;
18172;SDS011;9211;48.818;9.312;2023-02-24T01:09:13;31.58;;;18.20;;
18172;SDS011;9211;48.818;9.312;2023-02-24T01:11:44;33.75;;;18.23;;
18172;SDS011;9211;48.818;9.312;2023-02-24T01:14:42;32.97;;;18.85;;
18172;SDS011;9211;48.818;9.312;2023-02-24T01:17:11;32.25;;;18.48;;
18172;SDS011;9211;48.818;9.312;2023-02-24T01:19:41;30.23;;;16.70;;
18172;SDS011;9211;48.818;9.312;2023-02-24T01:22:10;34.42;;;18.35;;
18172;SDS011;9211;48.818;9.312;2023-02-24T01:24:40;35.15;;;18.85;;
18172;SDS011;9211;48.818;9.312;2023-02-24T01:27:10;32.70;;;18.65;;
18172;SDS011;9211;48.818;9.312;2023-02-24T01:29:38;28.65;;;17.42;;
18172;SDS011;9211;48.818;9.312;2023-02-24T01:32:07;32.58;;;18.23;;
18172;SDS011;9211;48.818;9.312;2023-02-24T01:34:41;33.33;;;17.70;;
18172;SDS011;9211;48.818;9.312;2023-02-24T01:37:08;29.53;;;17.67;;
18172;SDS011;9211;48.818;9.312;2023-02-24T01:39:39;34.10;;;18.00;;
18172;SDS011;9211;48.818;9.312;2023-02-24T01:42:10;35.73;;;18.80;;
18172;SDS011;9211;48.818;9.312;2023-02-24T01:47:40;32.83;;;18.57;;
18172;SDS011;9211;48.818;9.312;2023-02-24T01:50:11;33.60;;;19.08;;
18172;SDS011;9211;48.818;9.312;2023-02-24T01:52:40;34.08;;;18.92;;
18172;SDS011;9211;48.818;9.312;2023-02-24T01:55:12;31.38;;;18.85;;
18172;SDS011;9211;48.818;9.312;2023-02-24T01:57:45;32.38;;;18.88;;
18172;SDS011;9211;48.818;9.312;2023-02-24T02:00:16;34.13;;;19.15;;
18172;SDS011;9211;48.818;9.312;2023-02-24T02:03:06;33.03;;;19.45;;
18172;SDS011;9211;48.818;9.312;2023-02-24T02:05:36;31.52;;;18.35;;
18172;SDS011;9211;48.818;9.312;2023-02-24T02:08:05;31.42;;;18.17;;
18172;SDS011;9211;48.818;9.312;2023-02-24T02:10:36;32.40;;;18.75;;
18172;SDS011;9211;48.818;9.312;2023-02-24T02:13:06;30.50;;;18.30;;
18172;SDS011;9211;48.818;9.312;2023-02-24T02:15:34;31.63;;;18.23;;
18172;SDS011;9211;48.818;9.312;2023-02-24T02:18:17;31.95;;;18.35;;
18172;SDS011;9211;48.818;9.312;2023-02-24T02:24:16;31.08;;;18.13;;
18172;SDS011;9211;48.818;9.312;2023-02-24T02:33:40;34.30;;;19.25;;
18172;SDS011;9211;48.818;9.312;2023-02-24T02:36:30;31.60;;;18.65;;
18172;SDS011;9211;48.818;9.312;2023-02-24T02:39:10;32.97;;;18.58;;
18172;SDS011;9211;48.818;9.312;2023-02-24T02:41:44;36.10;;;18.70;;
18172;SDS011;9211;48.818;9.312;2023-02-24T02:44:18;30.77;;;18.13;;
18172;SDS011;9211;48.818;9.312;2023-02-24T02:46:50;32.67;;;18.50;;
18172;SDS011;9211;48.818;9.312;2023-02-24T02:49:25;31.23;;;18.33;;
18172;SDS011;9211;48.818;9.312;2023-02-24T02:51:57;34.40;;;19.20;;
18172;SDS011;9211;48.818;9.312;2023-02-24T02:54:34;32.53;;;19.23;;
18172;SDS011;9211;48.818;9.312;2023-02-24T02:57:06;30.48;;;17.85;;
18172;SDS011;9211;48.818;9.312;2023-02-24T02:59:39;33.25;;;19.25;;
18172;SDS011;9211;48.818;9.312;2023-02-24T03:02:13;37.50;;;19.50;;
18172;SDS011;9211;48.818;9.312;2023-02-24T03:04:45;34.50;;;19.30;;
18172;SDS011;9211;48.818;9.312;2023-02-24T03:07:16;34.63;;;20.00;;
18172;SDS011;9211;48.818;9.312;2023-02-24T03:09:45;34.55;;;19.73;;
18172;SDS011;9211;48.818;9.312;2023-02-24T03:12:20;36.83;;;20.20;;
18172;SDS011;9211;48.818;9.312;2023-02-24T03:14:51;35.70;;;20.48;;
18172;SDS011;9211;48.818;9.312;2023-02-24T03:17:23;35.03;;;19.95;;
18172;SDS011;9211;48.818;9.312;2023-02-24T03:19:56;35.65;;;20.02;;
18172;SDS011;9211;48.818;9.312;2023-02-24T03:22:40;39.15;;;20.65;;
18172;SDS011;9211;48.818;9.312;2023-02-24T03:25:11;37.22;;;20.38;;
18172;SDS011;9211;48.818;9.312;2023-02-24T03:27:42;34.80;;;19.88;;
18172;SDS011;9211;48.818;9.312;2023-02-24T03:30:15;33.75;;;19.42;;
18172;SDS011;9211;48.818;9.312;2023-02-24T03:32:47;34.33;;;19.92;;
18172;SDS011;9211;48.818;9.312;2023-02-24T03:35:22;36.90;;;20.50;;
18172;SDS011;9211;48.818;9.312;2023-02-24T03:37:51;36.08;;;20.83;;
18172;SDS011;9211;48.818;9.312;2023-02-24T03:40:20;38.60;;;20.08;;
18172;SDS011;9211;48.818;9.312;2023-02-24T03:42:56;36.33;;;20.50;;
18172;SDS011;9211;48.818;9.312;2023-02-24T03:45:30;37.72;;;20.58;;
18172;SDS011;9211;48.818;9.312;2023-02-24T03:48:02;36.70;;;21.00;;
18172;SDS011;9211;48.818;9.312;2023-02-24T03:50:31;32.72;;;19.42;;
18172;SDS011;9211;48.818;9.312;2023-02-24T03:53:07;36.33;;;19.83;;
18172;SDS011;9211;48.818;9.312;2023-02-24T03:55:50;38.10;;;20.40;;
18172;SDS011;9211;48.818;9.312;2023-02-24T03:58:27;36.63;;;21.77;;
18172;SDS011;9211;48.818;9.312;2023-02-24T04:01:07;35.75;;;21.95;;
18172;SDS011;9211;48.818;9.312;2023-02-24T04:03:41;37.78;;;21.80;;
18172;SDS011;9211;48.818;9.312;2023-02-24T04:06:31;39.60;;;21.70;;
18172;SDS011;9211;48.818;9.312;2023-02-24T04:09:05;39.38;;;21.27;;
18172;SDS011;9211;48.818;9.312;2023-02-24T04:11:49;38.63;;;21.70;;
18172;SDS011;9211;48.818;9.312;2023-02-24T04:14:23;40.47;;;22.08;;
18172;SDS011;9211;48.818;9.312;2023-02-24T04:16:56;39.85;;;21.95;;
18172;SDS011;9211;48.818;9.312;2023-02-24T04:19:30;40.28;;;21.80;;
18172;SDS011;9211;48.818;9.312;2023-02-24T04:22:04;39.40;;;21.37;;
18172;SDS011;9211;48.818;9.312;2023-02-24T04:24:34;39.88;;;22.33;;
18172;SDS011;9211;48.818;9.312;2023-02-24T04:27:04;41.67;;;22.30;;
18172;SDS011;9211;48.818;9.312;2023-02-24T04:29:39;40.00;;;22.25;;
18172;SDS011;9211;48.818;9.312;2023-02-24T04:32:13;39.53;;;22.20;;
18172;SDS011;9211;48.818;9.312;2023-02-24T04:34:44;40.17;;;22.27;;
18172;SDS011;9211;48.818;9.312;2023-02-24T04:37:13;39.95;;;22.00;;
18172;SDS011;9211;48.818;9.312;2023-02-24T04:39:40;40.28;;;21.73;;
18172;SDS011;9211;48.818;9.312;2023-02-24T04:42:18;42.70;;;22.63;;
18172;SDS011;9211;48.818;9.312;2023-02-24T04:44:46;41.85;;;22.48;;
18172;SDS011;9211;48.818;9.312;2023-02-24T04:47:13;41.40;;;22.05;;
18172;SDS011;9211;48.818;9.312;2023-02-24T04:49:40;40.55;;;21.80;;
18172;SDS011;9211;48.818;9.312;2023-02-24T04:52:08;38.42;;;21.88;;
18172;SDS011;9211;48.818;9.312;2023-02-24T04:54:37;42.03;;;22.40;;
18172;SDS011;9211;48.818;9.312;2023-02-24T04:57:04;40.63;;;21.30;;
18172;SDS011;9211;48.818;9.312;2023-02-24T04:59:32;39.50;;;21.45;;
18172;SDS011;9211;48.818;9.312;2023-02-24T05:01:59;39.70;;;21.42;;
18172;SDS011;9211;48.818;9.312;2023-02-24T05:04:26;45.25;;;22.45;;
18172;SDS011;9211;48.818;9.312;2023-02-24T05:06:55;46.20;;;23.73;;
18172;SDS011;9211;48.818;9.312;2023-02-24T05:09:22;45.10;;;22.75;;
18172;SDS011;9211;48.818;9.312;2023-02-24T05:11:56;44.97;;;23.55;;
18172;SDS011;9211;48.818;9.312;2023-02-24T05:14:24;48.80;;;24.95;;
18172;SDS011;9211;48.818;9.312;2023-02-24T05:16:51;52.43;;;26.87;;
18172;SDS011;9211;48.818;9.312;2023-02-24T05:19:24;53.08;;;27.95;;
18172;SDS011;9211;48.818;9.312;2023-02-24T05:22:09;53.40;;;28.63;;
18172;SDS011;9211;48.818;9.312;2023-02-24T05:24:41;53.70;;;27.85;;
18172;SDS011;9211;48.818;9.312;2023-02-24T05:27:09;52.35;;;27.65;;
18172;SDS011;9211;48.818;9.312;2023-02-24T05:29:36;55.00;;;28.13;;
18172;SDS011;9211;48.818;9.312;2023-02-24T05:32:04;53.47;;;28.80;;
18172;SDS011;9211;48.818;9.312;2023-02-24T05:34:32;54.53;;;28.43;;
18172;SDS011;9211;48.818;9.312;2023-02-24T05:37:00;55.78;;;28.98;;
18172;SDS011;9211;48.818;9.312;2023-02-24T05:39:34;57.00;;;28.75;;
18172;SDS011;9211;48.818;9.312;2023-02-24T05:42:01;54.65;;;28.90;;
18172;SDS011;9211;48.818;9.312;2023-02-24T05:44:32;56.25;;;28.83;;
18172;SDS011;9211;48.818;9.312;2023-02-24T05:47:00;53.97;;;28.35;;
18172;SDS011;9211;48.818;9.312;2023-02-24T05:49:29;54.20;;;28.55;;
18172;SDS011;9211;48.818;9.312;2023-02-24T05:51:58;54.03;;;28.10;;
18172;SDS011;9211;48.818;9.312;2023-02-24T05:54:27;54.65;;;27.92;;
18172;SDS011;9211;48.818;9.312;2023-02-24T05:56:58;56.67;;;28.33;;
18172;SDS011;9211;48.818;9.312;2023-02-24T05:59:26;53.17;;;27.95;;
18172;SDS011;9211;48.818;9.312;2023-02-24T06:01:58;56.55;;;27.98;;
18172;SDS011;9211;48.818;9.312;2023-02-24T06:04:31;54.55;;;28.30;;
18172;SDS011;9211;48.818;9.312;2023-02-24T06:07:05;53.85;;;28.25;;
18172;SDS011;9211;48.818;9.312;2023-02-24T06:09:37;53.58;;;28.17;;
18172;SDS011;9211;48.818;9.312;2023-02-24T06:12:09;58.30;;;29.70;;
18172;SDS011;9211;48.818;9.312;2023-02-24T06:14:38;56.28;;;28.48;;
18172;SDS011;9211;48.818;9.312;2023-02-24T06:17:07;54.03;;;29.15;;
18172;SDS011;9211;48.818;9.312;2023-02-24T06:19:34;54.55;;;29.05;;
18172;SDS011;9211;48.818;9.312;2023-02-24T06:22:01;60.90;;;29.83;;
18172;SDS011;9211;48.818;9.312;2023-02-24T06:24:31;55.92;;;29.75;;
18172;SDS011;9211;48.818;9.312;2023-02-24T06:26:58;56.53;;;29.70;;
18172;SDS011;9211;48.818;9.312;2023-02-24T06:29:29;56.58;;;30.20;;
18172;SDS011;9211;48.818;9.312;2023-02-24T06:31:56;60.08;;;31.17;;
18172;SDS011;9211;48.818;9.312;2023-02-24T06:34:24;61.70;;;33.15;;
18172;SDS011;9211;48.818;9.312;2023-02-24T06:36:51;63.20;;;33.13;;
18172;SDS011;9211;48.818;9.312;2023-02-24T06:39:19;58.97;;;30.60;;
18172;SDS011;9211;48.818;9.312;2023-02-24T06:41:48;59.65;;;31.17;;
18172;SDS011;9211;48.818;9.312;2023-02-24T06:44:15;61.40;;;30.63;;
18172;SDS011;9211;48.818;9.312;2023-02-24T06:46:43;59.90;;;31.23;;
18172;SDS011;9211;48.818;9.312;2023-02-24T06:49:11;59.72;;;31.20;;
18172;SDS011;9211;48.818;9.312;2023-02-24T06:51:39;67.35;;;31.52;;
18172;SDS011;9211;48.818;9.312;2023-02-24T06:54:07;61.45;;;30.63;;
18172;SDS011;9211;48.818;9.312;2023-02-24T06:56:34;58.55;;;30.25;;
18172;SDS011;9211;48.818;9.312;2023-02-24T06:59:03;86.18;;;44.47;;
18172;SDS011;9211;48.818;9.312;2023-02-24T07:01:36;69.30;;;34.90;;
18172;SDS011;9211;48.818;9.312;2023-02-24T07:04:09;88.47;;;47.15;;
18172;SDS011;9211;48.818;9.312;2023-02-24T07:06:46;71.45;;;36.13;;
18172;SDS011;9211;48.818;9.312;2023-02-24T07:09:16;67.70;;;37.50;;
18172;SDS011;9211;48.818;9.312;2023-02-24T07:11:45;66.15;;;32.97;;
18172;SDS011;9211;48.818;9.312;2023-02-24T07:14:17;69.75;;;34.15;;
18172;SDS011;9211;48.818;9.312;2023-02-24T07:16:44;64.00;;;32.07;;
18172;SDS011;9211;48.818;9.312;2023-02-24T07:19:12;62.40;;;29.70;;
18172;SDS011;9211;48.818;9.312;2023-02-24T07:21:41;66.60;;;32.47;;
18172;SDS011;9211;48.818;9.312;2023-02-24T07:24:16;67.85;;;32.92;;
18172;SDS011;9211;48.818;9.312;2023-02-24T07:26:53;65.28;;;32.05;;
18172;SDS011;9211;48.818;9.312;2023-02-24T07:29:21;68.20;;;32.47;;
18172;SDS011;9211;48.818;9.312;2023-02-24T07:31:50;70.78;;;33.15;;
18172;SDS011;9211;48.818;9.312;2023-02-24T07:34:21;68.25;;;32.15;;
18172;SDS011;9211;48.818;9.312;2023-02-24T07:36:50;67.35;;;32.72;;
18172;SDS011;9211;48.818;9.312;2023-02-24T07:39:19;72.28;;;32.67;;
18172;SDS011;9211;48.818;9.312;2023-02-24T07:41:47;70.40;;;33.13;;
18172;SDS011;9211;48.818;9.312;2023-02-24T07:44:16;74.57;;;34.05;;
18172;SDS011;9211;48.818;9.312;2023-02-24T07:46:45;73.83;;;34.00;;
18172;SDS011;9211;48.818;9.312;2023-02-24T07:49:14;73.00;;;34.03;;
18172;SDS011;9211;48.818;9.312;2023-02-24T07:51:44;79.75;;;34.70;;
18172;SDS011;9211;48.818;9.312;2023-02-24T07:54:11;79.25;;;35.05;;
18172;SDS011;9211;48.818;9.312;2023-02-24T07:56:41;74.45;;;34.35;;
18172;SDS011;9211;48.818;9.312;2023-02-24T07:59:13;80.88;;;35.33;;
18172;SDS011;9211;48.818;9.312;2023-02-24T08:01:43;77.47;;;34.75;;
18172;SDS011;9211;48.818;9.312;2023-02-24T08:04:15;75.32;;;33.80;;
18172;SDS011;9211;48.818;9.312;2023-02-24T08:06:43;77.10;;;34.27;;
18172;SDS011;9211;48.818;9.312;2023-02-24T08:09:15;76.67;;;33.93;;
18172;SDS011;9211;48.818;9.312;2023-02-24T08:11:47;77.40;;;34.85;;
18172;SDS011;9211;48.818;9.312;2023-02-24T08:14:16;78.35;;;33.35;;
18172;SDS011;9211;48.818;9.312;2023-02-24T08:16:45;71.13;;;32.00;;
18172;SDS011;9211;48.818;9.312;2023-02-24T08:19:14;82.65;;;34.40;;
18172;SDS011;9211;48.818;9.312;2023-02-24T08:21:45;77.45;;;33.15;;
18172;SDS011;9211;48.818;9.312;2023-02-24T08:24:15;77.15;;;33.47;;
18172;SDS011;9211;48.818;9.312;2023-02-24T08:26:45;76.50;;;33.55;;
18172;SDS011;9211;48.818;9.312;2023-02-24T08:29:28;78.00;;;33.30;;
18172;SDS011;9211;48.818;9.312;2023-02-24T08:31:55;79.82;;;34.22;;
18172;SDS011;9211;48.818;9.312;2023-02-24T08:34:23;73.82;;;32.55;;
18172;SDS011;9211;48.818;9.312;2023-02-24T08:36:55;76.73;;;34.20;;
18172;SDS011;9211;48.818;9.312;2023-02-24T08:39:23;76.50;;;32.80;;
18172;SDS011;9211;48.818;9.312;2023-02-24T08:41:55;81.82;;;32.75;;
18172;SDS011;9211;48.818;9.312;2023-02-24T08:44:23;69.72;;;31.30;;
18172;SDS011;9211;48.818;9.312;2023-02-24T08:46:52;77.90;;;33.63;;
18172;SDS011;9211;48.818;9.312;2023-02-24T08:49:20;73.75;;;33.15;;
18172;SDS011;9211;48.818;9.312;2023-02-24T08:51:50;81.53;;;33.33;;
18172;SDS011;9211;48.818;9.312;2023-02-24T08:54:19;78.80;;;32.72;;
18172;SDS011;9211;48.818;9.312;2023-02-24T08:56:51;81.55;;;34.90;;
18172;SDS011;9211;48.818;9.312;2023-02-24T08:59:23;79.90;;;34.47;;
18172;SDS011;9211;48.818;9.312;2023-02-24T09:02:02;79.65;;;34.78;;
18172;SDS011;9211;48.818;9.312;2023-02-24T09:04:42;76.28;;;32.63;;
18172;SDS011;9211;48.818;9.312;2023-02-24T09:07:13;88.55;;;34.72;;
18172;SDS011;9211;48.818;9.312;2023-02-24T09:09:42;81.93;;;33.45;;
18172;SDS011;9211;48.818;9.312;2023-02-24T09:12:10;80.82;;;34.13;;
18172;SDS011;9211;48.818;9.312;2023-02-24T09:14:47;86.80;;;36.05;;
18172;SDS011;9211;48.818;9.312;2023-02-24T09:17:19;84.97;;;34.65;;
18172;SDS011;9211;48.818;9.312;2023-02-24T09:20:05;77.65;;;34.00;;
18172;SDS011;9211;48.818;9.312;2023-02-24T09:22:52;84.53;;;35.15;;
18172;SDS011;9211;48.818;9.312;2023-02-24T09:25:25;81.18;;;35.92;;
18172;SDS011;9211;48.818;9.312;2023-02-24T09:28:06;77.82;;;33.50;;
18172;SDS011;9211;48.818;9.312;2023-02-24T09:30:36;86.93;;;34.85;;
18172;SDS011;9211;48.818;9.312;2023-02-24T09:33:16;77.72;;;35.08;;
18172;SDS011;9211;48.818;9.312;2023-02-24T09:35:49;83.82;;;34.78;;
18172;SDS011;9211;48.818;9.312;2023-02-24T09:38:28;79.38;;;33.90;;
18172;SDS011;9211;48.818;9.312;2023-02-24T09:41:19;75.05;;;33.47;;
18172;SDS011;9211;48.818;9.312;2023-02-24T09:43:56;77.82;;;34.33;;
18172;SDS011;9211;48.818;9.312;2023-02-24T09:46:33;71.72;;;31.95;;
18172;SDS011;9211;48.818;9.312;2023-02-24T09:49:06;71.68;;;31.65;;
18172;SDS011;9211;48.818;9.312;2023-02-24T09:51:41;73.68;;;32.80;;
18172;SDS011;9211;48.818;9.312;2023-02-24T09:54:13;65.63;;;30.20;;
18172;SDS011;9211;48.818;9.312;2023-02-24T09:56:43;69.28;;;30.23;;
18172;SDS011;9211;48.818;9.312;2023-02-24T09:59:22;66.57;;;29.67;;
18172;SDS011;9211;48.818;9.312;2023-02-24T10:02:02;65.72;;;29.13;;
18172;SDS011;9211;48.818;9.312;2023-02-24T10:04:53;62.90;;;28.65;;
18172;SDS011;9211;48.818;9.312;2023-02-24T10:07:32;65.30;;;28.60;;
18172;SDS011;9211;48.818;9.312;2023-02-24T10:10:05;61.03;;;27.73;;
18172;SDS011;9211;48.818;9.312;2023-02-24T10:12:46;63.58;;;27.55;;
18172;SDS011;9211;48.818;9.312;2023-02-24T10:15:18;59.88;;;27.38;;
18172;SDS011;9211;48.818;9.312;2023-02-24T10:18:21;59.78;;;27.05;;
18172;SDS011;9211;48.818;9.312;2023-02-24T10:20:53;56.33;;;25.60;;
18172;SDS011;9211;48.818;9.312;2023-02-24T10:23:26;60.23;;;27.53;;
18172;SDS011;9211;48.818;9.312;2023-02-24T10:25:59;55.72;;;25.13;;
18172;SDS011;9211;48.818;9.312;2023-02-24T10:28:31;56.40;;;24.05;;
18172;SDS011;9211;48.818;9.312;2023-02-24T10:31:08;54.97;;;23.45;;
18172;SDS011;9211;48.818;9.312;2023-02-24T10:33:51;56.22;;;24.40;;
18172;SDS011;9211;48.818;9.312;2023-02-24T10:36:22;55.88;;;24.58;;
18172;SDS011;9211;48.818;9.312;2023-02-24T10:39:00;53.40;;;23.23;;
18172;SDS011;9211;48.818;9.312;2023-02-24T10:41:40;50.90;;;22.33;;
18172;SDS011;9211;48.818;9.312;2023-02-24T10:44:11;44.63;;;19.55;;
18172;SDS011;9211;48.818;9.312;2023-02-24T10:46:45;40.17;;;18.23;;
18172;SDS011;9211;48.818;9.312;2023-02-24T10:49:13;42.22;;;19.08;;
18172;SDS011;9211;48.818;9.312;2023-02-24T10:51:41;38.85;;;18.35;;
18172;SDS011;9211;48.818;9.312;2023-02-24T10:54:13;37.45;;;17.90;;
18172;SDS011;9211;48.818;9.312;2023-02-24T10:57:00;40.83;;;18.50;;
18172;SDS011;9211;48.818;9.312;2023-02-24T10:59:51;49.10;;;20.17;;
18172;SDS011;9211;48.818;9.312;2023-02-24T11:02:37;49.40;;;20.80;;
18172;SDS011;9211;48.818;9.312;2023-02-24T11:05:22;57.75;;;23.25;;
18172;SDS011;9211;48.818;9.312;2023-02-24T11:08:04;60.13;;;24.45;;
18172;SDS011;9211;48.818;9.312;2023-02-24T11:10:37;62.33;;;26.48;;
18172;SDS011;9211;48.818;9.312;2023-02-24T11:13:17;62.90;;;25.02;;
18172;SDS011;9211;48.818;9.312;2023-02-24T11:16:03;66.37;;;25.13;;
18172;SDS011;9211;48.818;9.312;2023-02-24T11:18:51;73.45;;;26.52;;
18172;SDS011;9211;48.818;9.312;2023-02-24T11:21:21;64.78;;;25.73;;
18172;SDS011;9211;48.818;9.312;2023-02-24T11:23:50;71.35;;;27.27;;
18172;SDS011;9211;48.818;9.312;2023-02-24T11:26:21;67.27;;;25.87;;
18172;SDS011;9211;48.818;9.312;2023-02-24T11:34:37;68.30;;;26.77;;
18172;SDS011;9211;48.818;9.312;2023-02-24T11:37:17;68.55;;;27.30;;
18172;SDS011;9211;48.818;9.312;2023-02-24T11:39:56;75.72;;;28.23;;
18172;SDS011;9211;48.818;9.312;2023-02-24T11:42:27;70.33;;;26.90;;
18172;SDS011;9211;48.818;9.312;2023-02-24T11:45:00;71.05;;;27.10;;
18172;SDS011;9211;48.818;9.312;2023-02-24T11:47:33;64.18;;;26.15;;
18172;SDS011;9211;48.818;9.312;2023-02-24T11:50:13;70.00;;;26.63;;
18172;SDS011;9211;48.818;9.312;2023-02-24T11:53:14;68.55;;;26.40;;
18172;SDS011;9211;48.818;9.312;2023-02-24T11:55:49;69.43;;;26.67;;
18172;SDS011;9211;48.818;9.312;2023-02-24T11:58:23;71.70;;;26.92;;
18172;SDS011;9211;48.818;9.312;2023-02-24T12:00:56;66.70;;;25.40;;
18172;SDS011;9211;48.818;9.312;2023-02-24T12:03:30;66.47;;;25.30;;
18172;SDS011;9211;48.818;9.312;2023-02-24T12:06:04;64.25;;;25.88;;
18172;SDS011;9211;48.818;9.312;2023-02-24T12:08:40;67.07;;;25.65;;
18172;SDS011;9211;48.818;9.312;2023-02-24T12:11:12;66.63;;;26.20;;
18172;SDS011;9211;48.818;9.312;2023-02-24T12:13:44;67.20;;;26.20;;
18172;SDS011;9211;48.818;9.312;2023-02-24T12:16:16;66.65;;;26.10;;
18172;SDS011;9211;48.818;9.312;2023-02-24T12:18:49;70.15;;;26.00;;
18172;SDS011;9211;48.818;9.312;2023-02-24T12:21:22;67.03;;;25.60;;
18172;SDS011;9211;48.818;9.312;2023-02-24T12:23:56;64.90;;;26.15;;
18172;SDS011;9211;48.818;9.312;2023-02-24T12:26:24;67.80;;;25.50;;
18172;SDS011;9211;48.818;9.312;2023-02-24T12:28:59;66.25;;;25.92;;
18172;SDS011;9211;48.818;9.312;2023-02-24T12:31:35;63.78;;;25.38;;
18172;SDS011;9211;48.818;9.312;2023-02-24T12:34:10;66.00;;;25.38;;
18172;SDS011;9211;48.818;9.312;2023-02-24T12:36:47;61.47;;;24.63;;
18172;SDS011;9211;48.818;9.312;2023-02-24T12:39:32;61.92;;;24.52;;
18172;SDS011;9211;48.818;9.312;2023-02-24T12:42:06;66.95;;;25.27;;
18172;SDS011;9211;48.818;9.312;2023-02-24T12:44:42;63.13;;;25.08;;
18172;SDS011;9211;48.818;9.312;2023-02-24T12:47:14;59.00;;;23.85;;
18172;SDS011;9211;48.818;9.312;2023-02-24T12:49:57;63.47;;;23.92;;
18172;SDS011;9211;48.818;9.312;2023-02-24T12:52:44;59.10;;;24.38;;
18172;SDS011;9211;48.818;9.312;2023-02-24T12:55:21;58.55;;;23.77;;
18172;SDS011;9211;48.818;9.312;2023-02-24T12:57:54;56.53;;;23.75;;
18172;SDS011;9211;48.818;9.312;2023-02-24T13:00:28;62.92;;;24.38;;
18172;SDS011;9211;48.818;9.312;2023-02-24T13:03:05;61.13;;;24.50;;
18172;SDS011;9211;48.818;9.312;2023-02-24T13:05:44;59.85;;;24.30;;
18172;SDS011;9211;48.818;9.312;2023-02-24T13:08:20;53.63;;;22.85;;
18172;SDS011;9211;48.818;9.312;2023-02-24T13:10:57;56.72;;;22.92;;
18172;SDS011;9211;48.818;9.312;2023-02-24T13:13:36;58.47;;;22.70;;
18172;SDS011;9211;48.818;9.312;2023-02-24T13:16:08;51.00;;;21.57;;
18172;SDS011;9211;48.818;9.312;2023-02-24T13:18:37;56.80;;;22.52;;
18172;SDS011;9211;48.818;9.312;2023-02-24T13:21:05;56.58;;;22.50;;
18172;SDS011;9211;48.818;9.312;2023-02-24T13:23:50;53.20;;;21.53;;
18172;SDS011;9211;48.818;9.312;2023-02-24T13:26:22;52.30;;;22.50;;
18172;SDS011;9211;48.818;9.312;2023-02-24T13:28:56;55.17;;;22.60;;
18172;SDS011;9211;48.818;9.312;2023-02-24T13:31:25;56.97;;;22.52;;
18172;SDS011;9211;48.818;9.312;2023-02-24T13:33:52;58.22;;;23.15;;
18172;SDS011;9211;48.818;9.312;2023-02-24T13:36:19;57.42;;;22.92;;
18172;SDS011;9211;48.818;9.312;2023-02-24T13:38:48;51.80;;;21.92;;
18172;SDS011;9211;48.818;9.312;2023-02-24T13:41:22;57.65;;;23.63;;
18172;SDS011;9211;48.818;9.312;2023-02-24T13:44:02;59.80;;;23.33;;
18172;SDS011;9211;48.818;9.312;2023-02-24T13:46:48;59.63;;;23.07;;
18172;SDS011;9211;48.818;9.312;2023-02-24T13:49:33;55.80;;;23.42;;
18172;SDS011;9211;48.818;9.312;2023-02-24T13:52:11;55.42;;;22.55;;
18172;SDS011;9211;48.818;9.312;2023-02-24T13:55:03;58.57;;;22.97;;
18172;SDS011;9211;48.818;9.312;2023-02-24T13:57:46;52.72;;;21.52;;
18172;SDS011;9211;48.818;9.312;2023-02-24T14:00:35;53.33;;;21.90;;
18172;SDS011;9211;48.818;9.312;2023-02-24T14:03:16;50.90;;;21.38;;
18172;SDS011;9211;48.818;9.312;2023-02-24T14:05:46;51.83;;;21.43;;
18172;SDS011;9211;48.818;9.312;2023-02-24T14:08:17;58.70;;;21.88;;
18172;SDS011;9211;48.818;9.312;2023-02-24T14:10:47;49.95;;;20.27;;
18172;SDS011;9211;48.818;9.312;2023-02-24T14:13:22;55.43;;;21.30;;
18172;SDS011;9211;48.818;9.312;2023-02-24T14:15:52;57.15;;;21.27;;
18172;SDS011;9211;48.818;9.312;2023-02-24T14:18:20;51.65;;;21.38;;
18172;SDS011;9211;48.818;9.312;2023-02-24T14:20:48;50.05;;;21.17;;
18172;SDS011;9211;48.818;9.312;2023-02-24T14:23:19;51.35;;;21.05;;
18172;SDS011;9211;48.818;9.312;2023-02-24T14:25:50;48.47;;;19.52;;
18172;SDS011;9211;48.818;9.312;2023-02-24T14:28:20;49.58;;;20.05;;
18172;SDS011;9211;48.818;9.312;2023-02-24T14:30:51;43.50;;;18.10;;
18172;SDS011;9211;48.818;9.312;2023-02-24T14:33:22;47.70;;;18.55;;
18172;SDS011;9211;48.818;9.312;2023-02-24T14:35:53;45.67;;;19.30;;
18172;SDS011;9211;48.818;9.312;2023-02-24T14:38:30;46.30;;;19.33;;
18172;SDS011;9211;48.818;9.312;2023-02-24T14:40:59;45.78;;;18.55;;
18172;SDS011;9211;48.818;9.312;2023-02-24T14:43:29;47.33;;;19.20;;
18172;SDS011;9211;48.818;9.312;2023-02-24T14:45:56;47.58;;;18.92;;
18172;SDS011;9211;48.818;9.312;2023-02-24T14:48:24;49.67;;;19.63;;
18172;SDS011;9211;48.818;9.312;2023-02-24T14:50:52;49.72;;;20.17;;
18172;SDS011;9211;48.818;9.312;2023-02-24T14:53:22;48.60;;;20.00;;
18172;SDS011;9211;48.818;9.312;2023-02-24T14:55:53;42.20;;;18.70;;
18172;SDS011;9211;48.818;9.312;2023-02-24T14:58:25;45.17;;;18.67;;
18172;SDS011;9211;48.818;9.312;2023-02-24T15:00:57;47.40;;;18.77;;
18172;SDS011;9211;48.818;9.312;2023-02-24T15:03:29;48.33;;;18.52;;
18172;SDS011;9211;48.818;9.312;2023-02-24T15:05:59;47.38;;;18.95;;
18172;SDS011;9211;48.818;9.312;2023-02-24T15:08:32;42.25;;;19.42;;
18172;SDS011;9211;48.818;9.312;2023-02-24T15:11:03;42.53;;;19.10;;
18172;SDS011;9211;48.818;9.312;2023-02-24T15:13:45;38.13;;;17.27;;
18172;SDS011;9211;48.818;9.312;2023-02-24T15:16:17;45.00;;;19.30;;
18172;SDS011;9211;48.818;9.312;2023-02-24T15:18:48;43.67;;;18.80;;
18172;SDS011;9211;48.818;9.312;2023-02-24T15:21:18;44.60;;;18.15;;
18172;SDS011;9211;48.818;9.312;2023-02-24T15:23:47;43.10;;;17.95;;
18172;SDS011;9211;48.818;9.312;2023-02-24T15:26:28;43.63;;;17.70;;